createdAt,value
2022-11-01T00:02:06.002Z,11.70
2022-11-01T00:04:34.070Z,11.80
2022-11-01T00:07:03.927Z,11.90
2022-11-01T00:09:34.908Z,11.90
2022-11-01T00:12:02.984Z,12.10
2022-11-01T00:14:31.143Z,12.20
2022-11-01T00:16:59.125Z,12.40
2022-11-01T00:19:27.141Z,12.40
2022-11-01T00:21:58.206Z,12.50
2022-11-01T00:24:26.190Z,12.50
2022-11-01T00:26:58.989Z,12.40
2022-11-01T00:29:26.961Z,12.40
2022-11-01T00:31:55.295Z,12.60
2022-11-01T00:34:23.362Z,12.60
2022-11-01T00:36:51.380Z,12.60
2022-11-01T00:39:19.585Z,12.70
2022-11-01T00:41:47.644Z,12.70
2022-11-01T00:44:17.329Z,12.60
2022-11-01T00:46:45.373Z,12.50
2022-11-01T00:49:13.484Z,12.50
2022-11-01T00:51:41.478Z,12.40
2022-11-01T00:54:11.661Z,12.40
2022-11-01T00:56:39.889Z,12.40
2022-11-01T00:59:07.890Z,12.40
2022-11-01T01:01:37.392Z,12.40
2022-11-01T01:04:08.232Z,12.40
2022-11-01T01:06:36.228Z,12.30
2022-11-01T01:09:04.230Z,12.30
2022-11-01T01:11:32.410Z,12.20
2022-11-01T01:14:00.390Z,12.20
2022-11-01T01:16:28.424Z,12.30
2022-11-01T01:19:01.895Z,12.60
2022-11-01T01:21:29.872Z,12.90
2022-11-01T01:23:57.880Z,13.40
2022-11-01T01:26:26.063Z,13.70
2022-11-01T01:28:56.520Z,13.90
2022-11-01T01:31:24.568Z,14.00
2022-11-01T01:33:53.913Z,13.90
2022-11-01T01:36:23.307Z,13.60
2022-11-01T01:38:53.163Z,13.40
2022-11-01T01:41:48.015Z,13.20
2022-11-01T01:45:01.500Z,13.20
2022-11-01T01:47:32.635Z,13.50
2022-11-01T01:50:06.304Z,13.80
2022-11-01T01:52:44.061Z,14.20
2022-11-01T01:55:14.710Z,14.60
2022-11-01T01:57:43.642Z,15.00
2022-11-01T02:00:16.016Z,15.10
2022-11-01T02:02:44.542Z,15.10
2022-11-01T02:05:19.096Z,15.20
2022-11-01T02:07:50.095Z,15.00
2022-11-01T02:10:18.614Z,14.90
2022-11-01T02:12:49.559Z,14.70
2022-11-01T02:15:18.560Z,14.50
2022-11-01T02:17:57.832Z,14.10
2022-11-01T02:21:10.067Z,13.70
2022-11-01T02:24:13.462Z,13.40
2022-11-01T02:26:57.523Z,13.20
2022-11-01T02:29:49.158Z,13.10
2022-11-01T02:32:23.696Z,13.10
2022-11-01T02:34:57.958Z,13.10
2022-11-01T02:37:31.108Z,13.10
2022-11-01T02:40:06.913Z,13.10
2022-11-01T02:42:39.706Z,13.00
2022-11-01T02:45:27.608Z,12.90
2022-11-01T02:48:00.257Z,12.90
2022-11-01T02:50:31.088Z,12.90
2022-11-01T02:53:00.532Z,13.00
2022-11-01T02:55:34.204Z,13.30
2022-11-01T02:58:05.325Z,13.60
2022-11-01T03:00:37.867Z,13.60
2022-11-01T03:03:16.874Z,13.50
2022-11-01T03:05:59.759Z,13.30
2022-11-01T03:08:30.122Z,13.10
2022-11-01T03:11:10.435Z,12.90
2022-11-01T03:13:54.534Z,12.80
2022-11-01T03:16:32.666Z,12.70
2022-11-01T03:19:09.773Z,12.60
2022-11-01T03:21:47.768Z,12.60
2022-11-01T03:24:23.201Z,12.80
2022-11-01T03:27:02.652Z,13.50
2022-11-01T03:29:32.627Z,14.00
2022-11-01T03:32:04.332Z,14.30
2022-11-01T03:34:35.334Z,14.60
2022-11-01T03:37:11.451Z,14.70
2022-11-01T03:39:48.868Z,14.80
2022-11-01T03:42:19.859Z,14.90
2022-11-01T03:44:53.715Z,15.00
2022-11-01T03:47:23.741Z,15.10
2022-11-01T03:50:15.158Z,15.10
2022-11-01T03:52:43.344Z,15.10
2022-11-01T03:55:21.489Z,15.10
2022-11-01T03:57:50.523Z,15.10
2022-11-01T04:00:21.082Z,15.10
2022-11-01T04:02:54.647Z,15.20
2022-11-01T04:05:25.654Z,15.20
2022-11-01T04:07:53.935Z,15.20
2022-11-01T04:10:22.993Z,15.10
2022-11-01T04:12:54.620Z,15.00
2022-11-01T04:15:41.619Z,15.00
2022-11-01T04:18:33.345Z,15.10
2022-11-01T04:21:06.887Z,15.10
2022-11-01T04:23:35.760Z,15.10
2022-11-01T04:26:04.208Z,15.10
2022-11-01T04:28:32.458Z,15.10
2022-11-01T04:31:00.714Z,15.20
2022-11-01T04:33:28.777Z,15.40
2022-11-01T04:35:56.762Z,15.50
2022-11-01T04:38:26.162Z,15.50
2022-11-01T04:40:54.260Z,15.40
2022-11-01T04:43:22.794Z,15.40
2022-11-01T04:45:55.787Z,15.30
2022-11-01T04:48:24.109Z,15.30
2022-11-01T04:50:55.022Z,15.30
2022-11-01T04:53:23.163Z,15.30
2022-11-01T04:55:52.593Z,15.20
2022-11-01T04:58:23.461Z,15.20
2022-11-01T05:00:51.625Z,15.30
2022-11-01T05:03:19.698Z,15.30
2022-11-01T05:05:49.821Z,15.30
2022-11-01T05:08:17.891Z,15.30
2022-11-01T05:10:46.296Z,15.40
2022-11-01T05:13:18.323Z,15.30
2022-11-01T05:15:59.702Z,15.30
2022-11-01T05:18:35.121Z,15.30
2022-11-01T05:21:03.142Z,15.30
2022-11-01T05:23:31.201Z,15.20
2022-11-01T05:25:59.239Z,15.20
2022-11-01T05:28:31.798Z,15.20
2022-11-01T05:31:02.720Z,15.10
2022-11-01T05:33:33.366Z,15.00
2022-11-01T05:36:02.227Z,15.00
2022-11-01T05:38:30.380Z,15.00
2022-11-01T05:40:58.542Z,14.90
2022-11-01T05:43:31.120Z,14.90
2022-11-01T05:45:59.154Z,14.90
2022-11-01T05:48:27.182Z,14.90
2022-11-01T05:50:55.280Z,14.80
2022-11-01T05:53:26.402Z,14.80
2022-11-01T05:55:57.570Z,14.70
2022-11-01T05:58:30.544Z,14.60
2022-11-01T06:01:01.390Z,14.50
2022-11-01T06:03:29.451Z,14.50
2022-11-01T06:05:57.749Z,14.50
2022-11-01T06:08:26.361Z,14.50
2022-11-01T06:10:55.209Z,14.50
2022-11-01T06:13:25.466Z,14.50
2022-11-01T06:16:00.892Z,14.50
2022-11-01T06:18:28.921Z,14.50
2022-11-01T06:20:57.613Z,14.40
2022-11-01T06:23:26.976Z,14.40
2022-11-01T06:26:01.713Z,14.40
2022-11-01T06:28:29.924Z,14.40
2022-11-01T06:31:03.227Z,14.60
2022-11-01T06:33:31.499Z,14.60
2022-11-01T06:35:59.528Z,14.70
2022-11-01T06:38:27.513Z,14.70
2022-11-01T06:40:55.593Z,14.70
2022-11-01T06:43:23.832Z,14.80
2022-11-01T06:45:52.309Z,14.80
2022-11-01T06:48:21.813Z,14.80
2022-11-01T06:50:49.972Z,14.80
2022-11-01T06:53:18.030Z,14.80
2022-11-01T06:55:46.037Z,14.80
2022-11-01T06:58:14.024Z,14.80
2022-11-01T07:00:42.139Z,14.80
2022-11-01T07:03:13.946Z,14.70
2022-11-01T07:05:43.514Z,14.70
2022-11-01T07:08:13.441Z,14.70
2022-11-01T07:10:43.593Z,14.60
2022-11-01T07:13:13.120Z,14.50
2022-11-01T07:15:41.544Z,14.40
2022-11-01T07:18:12.864Z,14.30
2022-11-01T07:20:43.931Z,14.30
2022-11-01T07:23:16.379Z,14.30
2022-11-01T07:25:44.574Z,14.30
2022-11-01T07:28:12.871Z,14.30
2022-11-01T07:30:40.872Z,14.30
2022-11-01T07:33:08.955Z,14.30
2022-11-01T07:35:37.130Z,14.30
2022-11-01T07:38:09.719Z,14.30
2022-11-01T07:40:42.336Z,14.30
2022-11-01T07:43:10.397Z,14.40
2022-11-01T07:45:38.609Z,14.40
2022-11-01T07:48:10.353Z,14.50
2022-11-01T07:50:39.875Z,14.60
2022-11-01T07:53:10.845Z,14.60
2022-11-01T07:55:39.468Z,14.60
2022-11-01T07:58:09.674Z,14.60
2022-11-01T08:00:38.690Z,14.70
2022-11-01T08:03:08.737Z,14.70
2022-11-01T08:05:37.646Z,14.80
2022-11-01T08:08:06.927Z,14.80
2022-11-01T08:10:36.237Z,14.90
2022-11-01T08:13:05.776Z,14.90
2022-11-01T08:15:38.050Z,15.00
2022-11-01T08:18:09.130Z,15.10
2022-11-01T08:20:37.597Z,15.10
2022-11-01T08:23:06.366Z,15.20
2022-11-01T08:25:36.053Z,15.20
2022-11-01T08:28:05.560Z,15.30
2022-11-01T08:30:33.870Z,15.40
2022-11-01T08:33:05.405Z,15.50
2022-11-01T08:35:38.080Z,15.50
2022-11-01T08:38:06.390Z,15.50
2022-11-01T08:40:35.098Z,15.60
2022-11-01T08:43:03.465Z,15.70
2022-11-01T08:45:31.778Z,15.70
2022-11-01T08:48:00.707Z,15.70
2022-11-01T08:50:30.533Z,15.80
2022-11-01T08:52:58.868Z,15.80
2022-11-01T08:55:27.123Z,15.90
2022-11-01T08:57:55.280Z,16.10
2022-11-01T09:00:23.518Z,16.20
2022-11-01T09:02:54.438Z,16.30
2022-11-01T09:05:24.610Z,16.40
2022-11-01T09:08:01.701Z,16.50
2022-11-01T09:10:30.944Z,16.60
2022-11-01T09:12:59.826Z,16.50
2022-11-01T09:15:28.601Z,16.60
2022-11-01T09:17:56.691Z,16.60
2022-11-01T09:20:26.424Z,16.70
2022-11-01T09:22:54.473Z,16.60
2022-11-01T09:25:26.310Z,16.60
2022-11-01T09:27:57.758Z,16.60
2022-11-01T09:30:25.834Z,16.70
2022-11-01T09:32:54.921Z,16.80
2022-11-01T09:35:23.743Z,16.80
2022-11-01T09:37:59.189Z,16.70
2022-11-01T09:40:30.339Z,16.70
2022-11-01T09:43:01.783Z,16.60
2022-11-01T09:45:34.367Z,16.70
2022-11-01T09:48:06.869Z,16.70
2022-11-01T09:50:39.402Z,16.70
2022-11-01T09:53:17.616Z,16.80
2022-11-01T09:55:56.118Z,16.70
2022-11-01T09:58:34.177Z,16.90
2022-11-01T10:01:25.257Z,16.90
2022-11-01T10:04:11.363Z,16.80
2022-11-01T10:06:45.136Z,16.90
2022-11-01T10:09:29.416Z,17.10
2022-11-01T10:12:25.106Z,17.30
2022-11-01T10:15:07.989Z,17.60
2022-11-01T10:18:02.796Z,17.70
2022-11-01T10:20:35.432Z,17.80
2022-11-01T10:23:06.725Z,17.90
2022-11-01T10:25:37.338Z,18.00
2022-11-01T10:28:13.318Z,18.10
2022-11-01T10:30:47.102Z,18.10
2022-11-01T10:33:29.864Z,18.10
2022-11-01T10:36:02.491Z,18.10
2022-11-01T10:39:04.611Z,18.10
2022-11-01T10:41:32.129Z,18.10
2022-11-01T10:44:04.084Z,17.80
2022-11-01T10:46:40.581Z,17.70
2022-11-01T10:49:19.786Z,17.60
2022-11-01T10:51:49.711Z,17.60
2022-11-01T10:54:23.413Z,17.40
2022-11-01T10:56:55.304Z,17.50
2022-11-01T10:59:29.358Z,17.60
2022-11-01T11:01:59.891Z,17.70
2022-11-01T11:04:29.846Z,17.90
2022-11-01T11:06:58.124Z,17.90
2022-11-01T11:09:30.729Z,17.90
2022-11-01T11:12:02.265Z,17.90
2022-11-01T11:14:33.680Z,18.10
2022-11-01T11:17:05.095Z,18.30
2022-11-01T11:19:34.897Z,18.40
2022-11-01T11:22:06.559Z,18.40
2022-11-01T11:24:36.921Z,18.40
2022-11-01T11:27:13.244Z,18.20
2022-11-01T11:29:49.154Z,18.30
2022-11-01T11:32:21.067Z,18.30
2022-11-01T11:34:56.385Z,18.20
2022-11-01T11:37:26.686Z,18.20
2022-11-01T11:40:19.508Z,18.20
2022-11-01T11:42:52.158Z,18.20
2022-11-01T11:45:28.591Z,18.20
2022-11-01T11:47:58.577Z,18.10
2022-11-01T11:50:32.385Z,18.20
2022-11-01T11:53:04.799Z,18.30
2022-11-01T11:55:40.431Z,18.40
2022-11-01T11:58:23.933Z,18.20
2022-11-01T12:00:58.313Z,18.20
2022-11-01T12:03:27.138Z,18.20
2022-11-01T12:05:58.172Z,18.00
2022-11-01T12:08:37.441Z,17.90
2022-11-01T12:11:09.252Z,17.80
2022-11-01T12:13:39.501Z,18.00
2022-11-01T12:16:16.464Z,18.10
2022-11-01T12:18:54.032Z,18.10
2022-11-01T12:21:26.755Z,18.00
2022-11-01T12:23:59.105Z,17.80
2022-11-01T12:26:28.473Z,17.80
2022-11-01T12:29:14.153Z,17.80
2022-11-01T12:31:45.554Z,17.80
2022-11-01T12:34:20.353Z,17.80
2022-11-01T12:36:54.973Z,17.70
2022-11-01T12:39:41.537Z,17.80
2022-11-01T12:42:13.214Z,17.70
2022-11-01T12:44:47.412Z,17.90
2022-11-01T12:47:23.266Z,17.90
2022-11-01T12:49:56.303Z,17.90
2022-11-01T12:52:32.532Z,17.90
2022-11-01T12:55:08.727Z,17.80
2022-11-01T12:57:36.983Z,17.80
2022-11-01T13:00:07.593Z,17.80
2022-11-01T13:02:55.644Z,17.70
2022-11-01T13:05:29.476Z,17.70
2022-11-01T13:08:09.939Z,17.60
2022-11-01T13:13:20.539Z,17.50
2022-11-01T13:16:01.809Z,17.30
2022-11-01T13:18:41.895Z,17.20
2022-11-01T13:21:17.724Z,17.20
2022-11-01T13:23:53.860Z,17.20
2022-11-01T13:26:31.166Z,17.30
2022-11-01T13:29:17.614Z,17.30
2022-11-01T13:31:57.356Z,17.20
2022-11-01T13:34:42.350Z,17.20
2022-11-01T13:37:18.172Z,17.20
2022-11-01T13:39:58.553Z,17.30
2022-11-01T13:42:31.812Z,17.30
2022-11-01T13:45:20.632Z,17.40
2022-11-01T13:47:57.830Z,17.50
2022-11-01T13:51:03.690Z,17.60
2022-11-01T13:53:37.546Z,17.60
2022-11-01T13:56:12.978Z,17.60
2022-11-01T13:58:41.483Z,17.60
2022-11-01T14:01:31.991Z,17.60
2022-11-01T14:04:28.604Z,17.60
2022-11-01T14:07:15.050Z,17.50
2022-11-01T14:09:48.016Z,17.60
2022-11-01T14:12:34.722Z,17.50
2022-11-01T14:15:18.250Z,17.50
2022-11-01T14:18:07.418Z,17.50
2022-11-01T14:20:52.862Z,17.60
2022-11-01T14:24:02.901Z,17.50
2022-11-01T14:26:39.958Z,17.50
2022-11-01T14:29:12.819Z,17.40
2022-11-01T14:31:43.950Z,17.40
2022-11-01T14:34:27.702Z,17.30
2022-11-01T14:37:00.481Z,17.30
2022-11-01T14:39:35.845Z,17.10
2022-11-01T14:42:06.923Z,17.00
2022-11-01T14:44:44.504Z,16.90
2022-11-01T14:47:26.763Z,16.80
2022-11-01T14:49:58.422Z,16.80
2022-11-01T14:53:44.339Z,16.80
2022-11-01T14:56:47.373Z,16.80
2022-11-01T14:59:21.428Z,16.90
2022-11-01T15:01:53.067Z,16.80
2022-11-01T15:04:26.012Z,16.70
2022-11-01T15:06:54.745Z,16.70
2022-11-01T15:09:25.929Z,16.60
2022-11-01T15:11:57.596Z,16.50
2022-11-01T15:14:35.650Z,16.60
2022-11-01T15:17:04.205Z,16.60
2022-11-01T15:19:38.030Z,16.60
2022-11-01T15:22:06.585Z,16.60
2022-11-01T15:24:36.254Z,16.50
2022-11-01T15:27:14.645Z,16.50
2022-11-01T15:29:45.182Z,16.50
2022-11-01T15:32:25.753Z,16.50
2022-11-01T15:34:56.264Z,16.50
2022-11-01T15:37:28.296Z,16.50
2022-11-01T15:39:56.471Z,16.40
2022-11-01T15:42:31.175Z,16.30
2022-11-01T15:45:29.985Z,16.30
2022-11-01T15:48:01.619Z,16.20
2022-11-01T15:50:39.364Z,16.10
2022-11-01T15:53:11.047Z,16.00
2022-11-01T15:55:45.801Z,15.80
2022-11-01T15:58:20.506Z,15.70
2022-11-01T16:00:54.173Z,15.60
2022-11-01T16:03:30.958Z,15.40
2022-11-01T16:06:08.344Z,15.30
2022-11-01T16:08:42.445Z,15.10
2022-11-01T16:11:11.094Z,15.00
2022-11-01T16:13:41.505Z,14.90
2022-11-01T16:16:17.266Z,14.80
2022-11-01T16:18:52.352Z,14.60
2022-11-01T16:21:47.391Z,14.50
2022-11-01T16:24:28.763Z,14.50
2022-11-01T16:27:16.676Z,14.40
2022-11-01T16:31:29.862Z,14.30
2022-11-01T17:20:37.138Z,12.70
2022-11-01T19:54:11.065Z,10.20
2022-11-01T19:56:42.825Z,10.60
2022-11-01T20:06:40.899Z,11.10
2022-11-01T20:17:16.092Z,10.70
2022-11-01T20:23:41.376Z,10.40
2022-11-01T20:29:19.513Z,10.10
2022-11-01T20:31:47.920Z,10.00
2022-11-01T20:34:16.100Z,9.90
2022-11-01T20:37:02.274Z,9.90
2022-11-01T20:39:35.292Z,9.80
2022-11-01T20:42:03.389Z,9.90
2022-11-01T20:44:31.397Z,9.80
2022-11-01T20:46:59.548Z,9.90
2022-11-01T20:49:27.998Z,10.00
2022-11-01T20:52:03.877Z,9.90
2022-11-01T20:54:45.736Z,9.90
2022-11-01T20:57:27.483Z,9.80
2022-11-01T20:59:56.592Z,9.80
2022-11-01T21:02:24.691Z,9.80
2022-11-01T21:04:56.890Z,9.70
2022-11-01T21:07:26.633Z,9.70
2022-11-01T21:09:56.093Z,9.80
2022-11-01T21:12:43.363Z,9.90
2022-11-01T21:15:35.084Z,9.90
2022-11-01T21:18:35.132Z,9.90
2022-11-01T21:21:42.465Z,9.90
2022-11-01T21:24:35.159Z,9.90
2022-11-01T21:27:23.985Z,10.00
2022-11-01T21:29:53.012Z,9.80
2022-11-01T21:32:29.733Z,9.80
2022-11-01T21:34:58.801Z,9.70
2022-11-01T21:37:29.711Z,9.70
2022-11-01T21:40:05.190Z,9.60
2022-11-01T21:42:37.431Z,9.50
2022-11-01T21:45:26.613Z,9.40
2022-11-01T21:47:54.978Z,9.40
2022-11-01T21:50:23.082Z,9.40
2022-11-01T21:52:51.179Z,9.30
2022-11-01T21:55:19.224Z,9.20
2022-11-01T21:57:48.757Z,9.20
2022-11-01T22:00:17.583Z,9.20
2022-11-01T22:02:45.821Z,9.30
2022-11-01T22:05:14.069Z,9.40
2022-11-01T22:07:45.091Z,9.40
2022-11-01T22:10:14.122Z,9.50
2022-11-01T22:12:42.139Z,9.50
2022-11-01T22:15:12.147Z,9.60
2022-11-01T22:17:40.219Z,9.70
2022-11-01T22:20:09.030Z,9.70
2022-11-01T22:22:40.248Z,9.70
2022-11-01T22:25:08.727Z,9.70
2022-11-01T22:27:36.777Z,9.60
2022-11-01T22:30:08.531Z,9.50
2022-11-01T22:32:38.980Z,9.50
2022-11-01T22:35:07.761Z,9.50
2022-11-01T22:37:36.663Z,9.40
2022-11-01T22:40:12.644Z,9.40
2022-11-01T22:42:47.817Z,9.20
2022-11-01T22:45:17.860Z,9.10
2022-11-01T22:47:51.274Z,9.00
2022-11-01T22:50:27.597Z,8.90
2022-11-01T22:52:55.845Z,8.80
2022-11-01T22:55:43.536Z,8.70
2022-11-01T22:58:39.093Z,8.60
2022-11-01T23:01:23.653Z,8.60
2022-11-01T23:03:59.116Z,8.60
2022-11-01T23:06:32.536Z,8.40
2022-11-01T23:09:13.231Z,8.40
2022-11-01T23:11:58.811Z,8.40
2022-11-01T23:14:39.265Z,8.30
2022-11-01T23:17:24.498Z,8.30
2022-11-01T23:19:58.864Z,8.40
2022-11-01T23:22:34.403Z,8.40
2022-11-01T23:25:02.761Z,8.40
2022-11-01T23:27:31.402Z,8.50
2022-11-01T23:30:02.760Z,8.60
2022-11-01T23:32:31.658Z,8.60
2022-11-01T23:35:10.951Z,8.70
2022-11-01T23:37:39.188Z,8.80
2022-11-01T23:40:15.211Z,8.90
2022-11-01T23:42:43.765Z,8.90
2022-11-01T23:45:34.838Z,8.90
2022-11-01T23:48:04.144Z,8.90
2022-11-01T23:50:38.181Z,8.90
2022-11-01T23:53:14.832Z,8.90
2022-11-01T23:55:46.933Z,8.90
2022-11-01T23:58:23.606Z,9.00
